sensor_id;sensor_type;location;lat;lon;timestamp;P1;durP1;ratioP1;P2;durP2;ratioP2
3433;SDS011;1730;41.932;25.548;2024-02-21T00:00:09;47.70;;;29.00;;
3433;SDS011;1730;41.932;25.548;2024-02-21T00:02:36;47.00;;;29.43;;
3433;SDS011;1730;41.932;25.548;2024-02-21T00:05:02;41.07;;;26.93;;
3433;SDS011;1730;41.932;25.548;2024-02-21T00:07:28;39.30;;;25.13;;
3433;SDS011;1730;41.932;25.548;2024-02-21T00:09:53;37.93;;;26.10;;
3433;SDS011;1730;41.932;25.548;2024-02-21T00:12:19;44.43;;;25.40;;
3433;SDS011;1730;41.932;25.548;2024-02-21T00:14:44;42.73;;;26.70;;
3433;SDS011;1730;41.932;25.548;2024-02-21T00:17:10;34.87;;;23.67;;
3433;SDS011;1730;41.932;25.548;2024-02-21T00:19:35;33.20;;;23.50;;
3433;SDS011;1730;41.932;25.548;2024-02-21T00:22:01;33.27;;;21.57;;
3433;SDS011;1730;41.932;25.548;2024-02-21T00:24:26;31.80;;;21.50;;
3433;SDS011;1730;41.932;25.548;2024-02-21T00:26:53;42.63;;;24.33;;
3433;SDS011;1730;41.932;25.548;2024-02-21T00:29:19;36.00;;;22.27;;
3433;SDS011;1730;41.932;25.548;2024-02-21T00:31:45;26.57;;;19.77;;
3433;SDS011;1730;41.932;25.548;2024-02-21T00:34:11;31.43;;;20.80;;
3433;SDS011;1730;41.932;25.548;2024-02-21T00:36:38;24.97;;;18.90;;
3433;SDS011;1730;41.932;25.548;2024-02-21T00:39:03;28.77;;;19.50;;
3433;SDS011;1730;41.932;25.548;2024-02-21T00:41:29;28.33;;;19.00;;
3433;SDS011;1730;41.932;25.548;2024-02-21T00:43:54;28.70;;;19.37;;
3433;SDS011;1730;41.932;25.548;2024-02-21T00:46:20;34.63;;;20.57;;
3433;SDS011;1730;41.932;25.548;2024-02-21T00:48:45;28.87;;;20.60;;
3433;SDS011;1730;41.932;25.548;2024-02-21T00:51:11;35.30;;;22.37;;
3433;SDS011;1730;41.932;25.548;2024-02-21T00:53:37;32.33;;;22.37;;
3433;SDS011;1730;41.932;25.548;2024-02-21T00:56:04;34.33;;;22.13;;
3433;SDS011;1730;41.932;25.548;2024-02-21T00:58:31;31.37;;;21.73;;
3433;SDS011;1730;41.932;25.548;2024-02-21T01:00:56;33.87;;;22.40;;
3433;SDS011;1730;41.932;25.548;2024-02-21T01:03:22;29.33;;;21.50;;
3433;SDS011;1730;41.932;25.548;2024-02-21T01:05:47;30.33;;;21.00;;
3433;SDS011;1730;41.932;25.548;2024-02-21T01:08:12;29.90;;;19.63;;
3433;SDS011;1730;41.932;25.548;2024-02-21T01:10:38;29.50;;;21.27;;
3433;SDS011;1730;41.932;25.548;2024-02-21T01:13:04;30.83;;;20.77;;
3433;SDS011;1730;41.932;25.548;2024-02-21T01:15:29;27.13;;;19.97;;
3433;SDS011;1730;41.932;25.548;2024-02-21T01:17:54;37.10;;;24.10;;
3433;SDS011;1730;41.932;25.548;2024-02-21T01:20:20;33.70;;;22.20;;
3433;SDS011;1730;41.932;25.548;2024-02-21T01:22:46;32.53;;;21.33;;
3433;SDS011;1730;41.932;25.548;2024-02-21T01:25:12;37.80;;;24.13;;
3433;SDS011;1730;41.932;25.548;2024-02-21T01:27:37;33.50;;;22.90;;
3433;SDS011;1730;41.932;25.548;2024-02-21T01:30:03;39.73;;;24.87;;
3433;SDS011;1730;41.932;25.548;2024-02-21T01:32:31;39.17;;;24.40;;
3433;SDS011;1730;41.932;25.548;2024-02-21T01:34:56;40.90;;;26.07;;
3433;SDS011;1730;41.932;25.548;2024-02-21T01:37:21;46.47;;;26.63;;
3433;SDS011;1730;41.932;25.548;2024-02-21T01:39:47;43.17;;;26.30;;
3433;SDS011;1730;41.932;25.548;2024-02-21T01:42:14;48.40;;;27.87;;
3433;SDS011;1730;41.932;25.548;2024-02-21T01:44:40;41.30;;;26.50;;
3433;SDS011;1730;41.932;25.548;2024-02-21T01:47:06;38.50;;;27.33;;
3433;SDS011;1730;41.932;25.548;2024-02-21T01:49:33;42.33;;;26.40;;
3433;SDS011;1730;41.932;25.548;2024-02-21T01:51:59;41.27;;;27.20;;
3433;SDS011;1730;41.932;25.548;2024-02-21T01:54:25;37.00;;;25.50;;
3433;SDS011;1730;41.932;25.548;2024-02-21T01:56:53;34.47;;;23.93;;
3433;SDS011;1730;41.932;25.548;2024-02-21T01:59:19;33.50;;;24.53;;
3433;SDS011;1730;41.932;25.548;2024-02-21T02:01:47;35.37;;;25.57;;
3433;SDS011;1730;41.932;25.548;2024-02-21T02:04:13;33.67;;;24.10;;
3433;SDS011;1730;41.932;25.548;2024-02-21T02:06:39;36.13;;;23.87;;
3433;SDS011;1730;41.932;25.548;2024-02-21T02:09:06;38.77;;;27.50;;
3433;SDS011;1730;41.932;25.548;2024-02-21T02:11:32;38.13;;;27.63;;
3433;SDS011;1730;41.932;25.548;2024-02-21T02:13:57;37.97;;;27.17;;
3433;SDS011;1730;41.932;25.548;2024-02-21T02:16:23;35.70;;;24.53;;
3433;SDS011;1730;41.932;25.548;2024-02-21T02:18:48;30.77;;;23.30;;
3433;SDS011;1730;41.932;25.548;2024-02-21T02:21:20;33.10;;;23.73;;
3433;SDS011;1730;41.932;25.548;2024-02-21T02:23:52;33.17;;;22.83;;
3433;SDS011;1730;41.932;25.548;2024-02-21T02:26:18;31.73;;;21.70;;
3433;SDS011;1730;41.932;25.548;2024-02-21T02:28:43;30.13;;;22.67;;
3433;SDS011;1730;41.932;25.548;2024-02-21T02:31:08;31.97;;;22.10;;
3433;SDS011;1730;41.932;25.548;2024-02-21T02:33:34;28.57;;;20.93;;
3433;SDS011;1730;41.932;25.548;2024-02-21T02:35:59;29.03;;;20.90;;
3433;SDS011;1730;41.932;25.548;2024-02-21T02:38:25;28.63;;;21.63;;
3433;SDS011;1730;41.932;25.548;2024-02-21T02:40:50;29.63;;;20.90;;
3433;SDS011;1730;41.932;25.548;2024-02-21T02:43:16;30.80;;;22.30;;
3433;SDS011;1730;41.932;25.548;2024-02-21T02:45:41;30.83;;;22.07;;
3433;SDS011;1730;41.932;25.548;2024-02-21T02:48:07;33.40;;;23.20;;
3433;SDS011;1730;41.932;25.548;2024-02-21T02:50:33;35.10;;;22.20;;
3433;SDS011;1730;41.932;25.548;2024-02-21T02:52:59;31.20;;;22.47;;
3433;SDS011;1730;41.932;25.548;2024-02-21T02:55:25;34.03;;;22.37;;
3433;SDS011;1730;41.932;25.548;2024-02-21T02:57:51;32.87;;;22.77;;
3433;SDS011;1730;41.932;25.548;2024-02-21T03:00:17;31.73;;;22.57;;
3433;SDS011;1730;41.932;25.548;2024-02-21T03:02:43;30.97;;;22.93;;
3433;SDS011;1730;41.932;25.548;2024-02-21T03:05:17;30.80;;;22.13;;
3433;SDS011;1730;41.932;25.548;2024-02-21T03:07:44;31.60;;;21.83;;
3433;SDS011;1730;41.932;25.548;2024-02-21T03:10:11;34.00;;;22.57;;
3433;SDS011;1730;41.932;25.548;2024-02-21T03:12:37;37.03;;;24.50;;
3433;SDS011;1730;41.932;25.548;2024-02-21T03:15:03;34.10;;;23.07;;
3433;SDS011;1730;41.932;25.548;2024-02-21T03:17:29;31.83;;;22.53;;
3433;SDS011;1730;41.932;25.548;2024-02-21T03:19:55;30.10;;;21.83;;
3433;SDS011;1730;41.932;25.548;2024-02-21T03:22:21;33.73;;;22.87;;
3433;SDS011;1730;41.932;25.548;2024-02-21T03:24:47;34.90;;;22.93;;
3433;SDS011;1730;41.932;25.548;2024-02-21T03:27:12;35.17;;;22.17;;
3433;SDS011;1730;41.932;25.548;2024-02-21T03:29:38;29.73;;;21.17;;
3433;SDS011;1730;41.932;25.548;2024-02-21T03:32:03;29.47;;;21.63;;
3433;SDS011;1730;41.932;25.548;2024-02-21T03:34:29;30.57;;;22.17;;
3433;SDS011;1730;41.932;25.548;2024-02-21T03:36:54;31.67;;;21.53;;
3433;SDS011;1730;41.932;25.548;2024-02-21T03:39:20;35.97;;;21.67;;
3433;SDS011;1730;41.932;25.548;2024-02-21T03:41:46;33.03;;;22.50;;
3433;SDS011;1730;41.932;25.548;2024-02-21T03:44:12;30.83;;;23.20;;
3433;SDS011;1730;41.932;25.548;2024-02-21T03:46:37;29.97;;;22.00;;
3433;SDS011;1730;41.932;25.548;2024-02-21T03:49:03;35.27;;;23.40;;
3433;SDS011;1730;41.932;25.548;2024-02-21T03:51:28;31.70;;;23.53;;
3433;SDS011;1730;41.932;25.548;2024-02-21T03:53:54;35.33;;;24.27;;
3433;SDS011;1730;41.932;25.548;2024-02-21T03:56:19;31.50;;;24.07;;
3433;SDS011;1730;41.932;25.548;2024-02-21T03:58:45;34.33;;;24.37;;
3433;SDS011;1730;41.932;25.548;2024-02-21T04:01:10;36.27;;;23.80;;
3433;SDS011;1730;41.932;25.548;2024-02-21T04:03:35;33.03;;;24.10;;
3433;SDS011;1730;41.932;25.548;2024-02-21T04:06:01;34.27;;;24.50;;
3433;SDS011;1730;41.932;25.548;2024-02-21T04:08:26;33.30;;;23.83;;
3433;SDS011;1730;41.932;25.548;2024-02-21T04:10:52;47.47;;;32.97;;
3433;SDS011;1730;41.932;25.548;2024-02-21T04:13:17;37.10;;;25.53;;
3433;SDS011;1730;41.932;25.548;2024-02-21T04:15:43;40.33;;;27.23;;
3433;SDS011;1730;41.932;25.548;2024-02-21T04:18:10;39.13;;;26.90;;
3433;SDS011;1730;41.932;25.548;2024-02-21T04:20:35;35.07;;;26.33;;
3433;SDS011;1730;41.932;25.548;2024-02-21T04:23:00;39.47;;;28.43;;
3433;SDS011;1730;41.932;25.548;2024-02-21T04:25:26;37.13;;;26.40;;
3433;SDS011;1730;41.932;25.548;2024-02-21T04:27:52;35.47;;;27.10;;
3433;SDS011;1730;41.932;25.548;2024-02-21T04:30:17;39.87;;;27.23;;
3433;SDS011;1730;41.932;25.548;2024-02-21T04:32:43;82.80;;;51.20;;
3433;SDS011;1730;41.932;25.548;2024-02-21T04:35:09;53.67;;;34.73;;
3433;SDS011;1730;41.932;25.548;2024-02-21T04:37:34;45.17;;;29.80;;
3433;SDS011;1730;41.932;25.548;2024-02-21T04:40:00;46.80;;;31.53;;
3433;SDS011;1730;41.932;25.548;2024-02-21T04:42:25;54.00;;;30.23;;
3433;SDS011;1730;41.932;25.548;2024-02-21T04:44:51;47.63;;;30.80;;
3433;SDS011;1730;41.932;25.548;2024-02-21T04:47:17;40.03;;;30.50;;
3433;SDS011;1730;41.932;25.548;2024-02-21T04:49:42;43.20;;;28.80;;
3433;SDS011;1730;41.932;25.548;2024-02-21T04:52:08;49.57;;;32.90;;
3433;SDS011;1730;41.932;25.548;2024-02-21T04:54:33;41.27;;;31.13;;
3433;SDS011;1730;41.932;25.548;2024-02-21T04:57:00;43.70;;;30.83;;
3433;SDS011;1730;41.932;25.548;2024-02-21T04:59:26;46.80;;;33.77;;
3433;SDS011;1730;41.932;25.548;2024-02-21T05:01:51;57.10;;;39.97;;
3433;SDS011;1730;41.932;25.548;2024-02-21T05:04:17;54.53;;;33.43;;
3433;SDS011;1730;41.932;25.548;2024-02-21T05:06:43;54.20;;;34.30;;
3433;SDS011;1730;41.932;25.548;2024-02-21T05:09:08;53.10;;;35.10;;
3433;SDS011;1730;41.932;25.548;2024-02-21T05:11:36;48.33;;;34.30;;
3433;SDS011;1730;41.932;25.548;2024-02-21T05:14:04;48.23;;;33.83;;
3433;SDS011;1730;41.932;25.548;2024-02-21T05:16:30;43.00;;;31.30;;
3433;SDS011;1730;41.932;25.548;2024-02-21T05:18:56;39.33;;;28.70;;
3433;SDS011;1730;41.932;25.548;2024-02-21T05:21:22;47.73;;;31.47;;
3433;SDS011;1730;41.932;25.548;2024-02-21T05:23:53;61.30;;;42.30;;
3433;SDS011;1730;41.932;25.548;2024-02-21T05:26:22;54.00;;;36.90;;
3433;SDS011;1730;41.932;25.548;2024-02-21T05:28:48;51.00;;;35.50;;
3433;SDS011;1730;41.932;25.548;2024-02-21T05:31:15;58.23;;;35.90;;
3433;SDS011;1730;41.932;25.548;2024-02-21T05:33:44;54.37;;;34.07;;
3433;SDS011;1730;41.932;25.548;2024-02-21T05:36:09;54.20;;;35.60;;
3433;SDS011;1730;41.932;25.548;2024-02-21T05:38:35;62.93;;;38.50;;
3433;SDS011;1730;41.932;25.548;2024-02-21T05:41:01;65.53;;;45.43;;
3433;SDS011;1730;41.932;25.548;2024-02-21T05:43:27;68.53;;;45.97;;
3433;SDS011;1730;41.932;25.548;2024-02-21T05:45:52;62.47;;;41.80;;
3433;SDS011;1730;41.932;25.548;2024-02-21T05:48:17;64.03;;;41.83;;
3433;SDS011;1730;41.932;25.548;2024-02-21T05:50:43;66.30;;;44.50;;
3433;SDS011;1730;41.932;25.548;2024-02-21T05:53:08;68.97;;;46.97;;
3433;SDS011;1730;41.932;25.548;2024-02-21T05:55:35;59.70;;;43.07;;
3433;SDS011;1730;41.932;25.548;2024-02-21T05:58:00;68.07;;;44.60;;
3433;SDS011;1730;41.932;25.548;2024-02-21T06:00:27;106.73;;;68.17;;
3433;SDS011;1730;41.932;25.548;2024-02-21T06:02:53;80.30;;;55.63;;
3433;SDS011;1730;41.932;25.548;2024-02-21T06:05:19;65.30;;;45.30;;
3433;SDS011;1730;41.932;25.548;2024-02-21T06:07:44;69.37;;;48.83;;
3433;SDS011;1730;41.932;25.548;2024-02-21T06:10:10;68.57;;;46.73;;
3433;SDS011;1730;41.932;25.548;2024-02-21T06:12:35;78.90;;;53.40;;
3433;SDS011;1730;41.932;25.548;2024-02-21T06:15:02;77.33;;;50.57;;
3433;SDS011;1730;41.932;25.548;2024-02-21T06:17:28;66.43;;;48.40;;
3433;SDS011;1730;41.932;25.548;2024-02-21T06:19:53;80.67;;;52.90;;
3433;SDS011;1730;41.932;25.548;2024-02-21T06:22:18;73.03;;;50.23;;
3433;SDS011;1730;41.932;25.548;2024-02-21T06:24:44;74.17;;;50.73;;
3433;SDS011;1730;41.932;25.548;2024-02-21T06:27:10;68.27;;;47.63;;
3433;SDS011;1730;41.932;25.548;2024-02-21T06:29:36;69.27;;;50.17;;
3433;SDS011;1730;41.932;25.548;2024-02-21T06:32:02;66.93;;;47.40;;
3433;SDS011;1730;41.932;25.548;2024-02-21T06:34:28;78.20;;;52.07;;
3433;SDS011;1730;41.932;25.548;2024-02-21T06:36:54;59.27;;;39.50;;
3433;SDS011;1730;41.932;25.548;2024-02-21T06:39:19;55.50;;;40.07;;
3433;SDS011;1730;41.932;25.548;2024-02-21T06:41:45;58.13;;;42.00;;
3433;SDS011;1730;41.932;25.548;2024-02-21T06:44:12;60.37;;;43.50;;
3433;SDS011;1730;41.932;25.548;2024-02-21T06:46:37;67.57;;;39.67;;
3433;SDS011;1730;41.932;25.548;2024-02-21T06:49:03;57.57;;;41.87;;
3433;SDS011;1730;41.932;25.548;2024-02-21T06:51:28;66.50;;;41.60;;
3433;SDS011;1730;41.932;25.548;2024-02-21T06:53:54;58.77;;;40.53;;
3433;SDS011;1730;41.932;25.548;2024-02-21T06:56:22;60.33;;;41.57;;
3433;SDS011;1730;41.932;25.548;2024-02-21T06:58:52;57.83;;;38.40;;
3433;SDS011;1730;41.932;25.548;2024-02-21T07:01:17;65.97;;;40.80;;
3433;SDS011;1730;41.932;25.548;2024-02-21T07:03:43;61.77;;;40.90;;
3433;SDS011;1730;41.932;25.548;2024-02-21T07:06:08;60.23;;;39.53;;
3433;SDS011;1730;41.932;25.548;2024-02-21T07:08:34;83.17;;;51.50;;
3433;SDS011;1730;41.932;25.548;2024-02-21T07:10:59;61.90;;;43.80;;
3433;SDS011;1730;41.932;25.548;2024-02-21T07:13:25;64.40;;;43.60;;
3433;SDS011;1730;41.932;25.548;2024-02-21T07:15:51;71.43;;;43.70;;
3433;SDS011;1730;41.932;25.548;2024-02-21T07:18:17;77.80;;;51.03;;
3433;SDS011;1730;41.932;25.548;2024-02-21T07:20:43;63.20;;;41.90;;
3433;SDS011;1730;41.932;25.548;2024-02-21T07:23:08;66.97;;;42.47;;
3433;SDS011;1730;41.932;25.548;2024-02-21T07:25:34;62.10;;;41.20;;
3433;SDS011;1730;41.932;25.548;2024-02-21T07:27:59;62.63;;;40.80;;
3433;SDS011;1730;41.932;25.548;2024-02-21T07:30:25;67.17;;;41.80;;
3433;SDS011;1730;41.932;25.548;2024-02-21T07:32:50;64.53;;;40.50;;
3433;SDS011;1730;41.932;25.548;2024-02-21T07:35:19;56.57;;;38.03;;
3433;SDS011;1730;41.932;25.548;2024-02-21T07:37:45;46.17;;;33.73;;
3433;SDS011;1730;41.932;25.548;2024-02-21T07:40:14;42.20;;;29.07;;
3433;SDS011;1730;41.932;25.548;2024-02-21T07:42:40;39.60;;;27.43;;
3433;SDS011;1730;41.932;25.548;2024-02-21T07:45:07;32.03;;;24.50;;
3433;SDS011;1730;41.932;25.548;2024-02-21T07:47:33;33.97;;;23.93;;
3433;SDS011;1730;41.932;25.548;2024-02-21T07:49:59;28.90;;;22.90;;
3433;SDS011;1730;41.932;25.548;2024-02-21T07:52:24;32.10;;;22.30;;
3433;SDS011;1730;41.932;25.548;2024-02-21T07:54:51;36.03;;;24.00;;
3433;SDS011;1730;41.932;25.548;2024-02-21T07:57:17;30.93;;;22.20;;
3433;SDS011;1730;41.932;25.548;2024-02-21T07:59:42;30.70;;;23.13;;
3433;SDS011;1730;41.932;25.548;2024-02-21T08:02:08;30.93;;;22.20;;
3433;SDS011;1730;41.932;25.548;2024-02-21T08:04:34;29.87;;;22.20;;
3433;SDS011;1730;41.932;25.548;2024-02-21T08:07:00;31.60;;;22.80;;
3433;SDS011;1730;41.932;25.548;2024-02-21T08:09:29;32.63;;;22.83;;
3433;SDS011;1730;41.932;25.548;2024-02-21T08:11:55;31.90;;;23.00;;
3433;SDS011;1730;41.932;25.548;2024-02-21T08:14:21;34.50;;;23.00;;
3433;SDS011;1730;41.932;25.548;2024-02-21T08:16:47;29.57;;;21.93;;
3433;SDS011;1730;41.932;25.548;2024-02-21T08:19:13;32.00;;;23.80;;
3433;SDS011;1730;41.932;25.548;2024-02-21T08:21:38;32.63;;;24.80;;
3433;SDS011;1730;41.932;25.548;2024-02-21T08:24:04;31.83;;;23.47;;
3433;SDS011;1730;41.932;25.548;2024-02-21T08:26:30;35.63;;;24.00;;
3433;SDS011;1730;41.932;25.548;2024-02-21T08:28:59;34.73;;;24.80;;
3433;SDS011;1730;41.932;25.548;2024-02-21T08:31:28;34.07;;;24.67;;
3433;SDS011;1730;41.932;25.548;2024-02-21T08:34:02;81.03;;;52.77;;
3433;SDS011;1730;41.932;25.548;2024-02-21T08:36:32;39.43;;;25.77;;
3433;SDS011;1730;41.932;25.548;2024-02-21T08:38:58;30.23;;;24.13;;
3433;SDS011;1730;41.932;25.548;2024-02-21T08:41:24;41.43;;;27.40;;
3433;SDS011;1730;41.932;25.548;2024-02-21T08:43:51;34.03;;;24.50;;
3433;SDS011;1730;41.932;25.548;2024-02-21T08:46:21;37.87;;;26.07;;
3433;SDS011;1730;41.932;25.548;2024-02-21T08:48:49;34.97;;;25.47;;
3433;SDS011;1730;41.932;25.548;2024-02-21T08:51:18;35.33;;;24.73;;
3433;SDS011;1730;41.932;25.548;2024-02-21T08:53:45;39.43;;;26.20;;
3433;SDS011;1730;41.932;25.548;2024-02-21T08:56:10;39.03;;;25.80;;
3433;SDS011;1730;41.932;25.548;2024-02-21T08:58:37;36.63;;;26.47;;
3433;SDS011;1730;41.932;25.548;2024-02-21T09:01:04;31.50;;;23.77;;
3433;SDS011;1730;41.932;25.548;2024-02-21T09:03:34;43.27;;;25.93;;
3433;SDS011;1730;41.932;25.548;2024-02-21T09:06:00;32.10;;;23.87;;
3433;SDS011;1730;41.932;25.548;2024-02-21T09:08:26;29.30;;;23.27;;
3433;SDS011;1730;41.932;25.548;2024-02-21T09:10:52;33.93;;;24.70;;
3433;SDS011;1730;41.932;25.548;2024-02-21T09:13:18;32.93;;;24.10;;
3433;SDS011;1730;41.932;25.548;2024-02-21T09:15:44;30.20;;;22.70;;
3433;SDS011;1730;41.932;25.548;2024-02-21T09:18:10;25.90;;;21.00;;
3433;SDS011;1730;41.932;25.548;2024-02-21T09:20:41;27.07;;;20.77;;
3433;SDS011;1730;41.932;25.548;2024-02-21T09:23:06;24.43;;;20.30;;
3433;SDS011;1730;41.932;25.548;2024-02-21T09:25:32;25.57;;;19.30;;
3433;SDS011;1730;41.932;25.548;2024-02-21T09:27:57;32.03;;;24.80;;
3433;SDS011;1730;41.932;25.548;2024-02-21T09:30:25;24.80;;;19.37;;
3433;SDS011;1730;41.932;25.548;2024-02-21T09:32:50;23.20;;;19.23;;
3433;SDS011;1730;41.932;25.548;2024-02-21T09:35:16;24.60;;;19.33;;
3433;SDS011;1730;41.932;25.548;2024-02-21T09:37:41;25.60;;;18.93;;
3433;SDS011;1730;41.932;25.548;2024-02-21T09:40:07;17.97;;;14.93;;
3433;SDS011;1730;41.932;25.548;2024-02-21T09:42:40;22.80;;;19.60;;
3433;SDS011;1730;41.932;25.548;2024-02-21T09:45:23;30.07;;;22.60;;
3433;SDS011;1730;41.932;25.548;2024-02-21T09:50:36;35.33;;;23.13;;
3433;SDS011;1730;41.932;25.548;2024-02-21T09:53:06;19.23;;;16.83;;
3433;SDS011;1730;41.932;25.548;2024-02-21T09:55:32;19.03;;;16.40;;
3433;SDS011;1730;41.932;25.548;2024-02-21T09:58:01;21.97;;;17.40;;
3433;SDS011;1730;41.932;25.548;2024-02-21T10:00:27;20.90;;;17.10;;
3433;SDS011;1730;41.932;25.548;2024-02-21T10:02:55;20.57;;;17.90;;
3433;SDS011;1730;41.932;25.548;2024-02-21T10:05:20;22.17;;;17.57;;
3433;SDS011;1730;41.932;25.548;2024-02-21T10:07:46;23.47;;;19.20;;
3433;SDS011;1730;41.932;25.548;2024-02-21T10:10:13;17.43;;;15.63;;
3433;SDS011;1730;41.932;25.548;2024-02-21T10:12:48;20.20;;;17.60;;
3433;SDS011;1730;41.932;25.548;2024-02-21T10:15:19;18.93;;;15.53;;
3433;SDS011;1730;41.932;25.548;2024-02-21T10:17:45;23.67;;;19.27;;
3433;SDS011;1730;41.932;25.548;2024-02-21T10:20:11;15.87;;;14.27;;
3433;SDS011;1730;41.932;25.548;2024-02-21T10:22:40;16.83;;;13.50;;
3433;SDS011;1730;41.932;25.548;2024-02-21T10:25:09;16.23;;;14.53;;
3433;SDS011;1730;41.932;25.548;2024-02-21T10:27:39;17.17;;;14.83;;
3433;SDS011;1730;41.932;25.548;2024-02-21T10:30:06;16.60;;;14.80;;
3433;SDS011;1730;41.932;25.548;2024-02-21T10:32:48;17.50;;;15.60;;
3433;SDS011;1730;41.932;25.548;2024-02-21T10:35:31;21.13;;;15.30;;
3433;SDS011;1730;41.932;25.548;2024-02-21T10:37:58;16.97;;;15.17;;
3433;SDS011;1730;41.932;25.548;2024-02-21T10:40:25;17.90;;;14.47;;
3433;SDS011;1730;41.932;25.548;2024-02-21T10:42:55;16.60;;;14.90;;
3433;SDS011;1730;41.932;25.548;2024-02-21T10:45:25;17.00;;;14.90;;
3433;SDS011;1730;41.932;25.548;2024-02-21T10:48:16;17.10;;;14.60;;
3433;SDS011;1730;41.932;25.548;2024-02-21T10:56:00;13.40;;;12.00;;
3433;SDS011;1730;41.932;25.548;2024-02-21T10:58:36;13.27;;;10.60;;
3433;SDS011;1730;41.932;25.548;2024-02-21T11:01:03;9.57;;;8.63;;
3433;SDS011;1730;41.932;25.548;2024-02-21T11:03:30;19.80;;;9.87;;
3433;SDS011;1730;41.932;25.548;2024-02-21T11:05:57;9.20;;;8.40;;
3433;SDS011;1730;41.932;25.548;2024-02-21T11:08:23;10.70;;;8.90;;
3433;SDS011;1730;41.932;25.548;2024-02-21T11:10:56;8.90;;;8.10;;
3433;SDS011;1730;41.932;25.548;2024-02-21T11:13:31;10.67;;;8.70;;
3433;SDS011;1730;41.932;25.548;2024-02-21T11:16:10;10.17;;;9.17;;
3433;SDS011;1730;41.932;25.548;2024-02-21T11:18:37;10.80;;;9.80;;
3433;SDS011;1730;41.932;25.548;2024-02-21T11:21:04;12.87;;;11.63;;
3433;SDS011;1730;41.932;25.548;2024-02-21T11:23:30;13.00;;;11.00;;
3433;SDS011;1730;41.932;25.548;2024-02-21T11:26:09;9.00;;;8.20;;
3433;SDS011;1730;41.932;25.548;2024-02-21T11:28:35;8.27;;;7.57;;
3433;SDS011;1730;41.932;25.548;2024-02-21T11:31:10;7.93;;;7.30;;
3433;SDS011;1730;41.932;25.548;2024-02-21T11:33:40;7.20;;;6.60;;
3433;SDS011;1730;41.932;25.548;2024-02-21T11:36:10;7.17;;;6.57;;
3433;SDS011;1730;41.932;25.548;2024-02-21T11:38:36;9.13;;;6.70;;
3433;SDS011;1730;41.932;25.548;2024-02-21T11:41:02;8.47;;;7.70;;
3433;SDS011;1730;41.932;25.548;2024-02-21T11:43:27;7.60;;;6.83;;
3433;SDS011;1730;41.932;25.548;2024-02-21T11:46:00;7.33;;;6.73;;
3433;SDS011;1730;41.932;25.548;2024-02-21T11:48:26;7.10;;;6.53;;
3433;SDS011;1730;41.932;25.548;2024-02-21T11:50:56;7.00;;;6.40;;
3433;SDS011;1730;41.932;25.548;2024-02-21T11:53:22;7.67;;;7.07;;
3433;SDS011;1730;41.932;25.548;2024-02-21T11:55:48;7.00;;;6.40;;
3433;SDS011;1730;41.932;25.548;2024-02-21T11:58:14;6.97;;;6.40;;
3433;SDS011;1730;41.932;25.548;2024-02-21T12:00:40;7.77;;;7.17;;
3433;SDS011;1730;41.932;25.548;2024-02-21T12:03:06;6.87;;;6.37;;
3433;SDS011;1730;41.932;25.548;2024-02-21T12:05:34;8.43;;;7.73;;
3433;SDS011;1730;41.932;25.548;2024-02-21T12:07:59;8.70;;;7.90;;
3433;SDS011;1730;41.932;25.548;2024-02-21T12:10:25;7.90;;;7.20;;
3433;SDS011;1730;41.932;25.548;2024-02-21T12:12:52;10.87;;;9.20;;
3433;SDS011;1730;41.932;25.548;2024-02-21T12:15:19;8.43;;;7.57;;
3433;SDS011;1730;41.932;25.548;2024-02-21T12:17:45;8.67;;;7.87;;
3433;SDS011;1730;41.932;25.548;2024-02-21T12:20:11;10.37;;;9.37;;
3433;SDS011;1730;41.932;25.548;2024-02-21T12:22:43;10.73;;;8.80;;
3433;SDS011;1730;41.932;25.548;2024-02-21T12:25:18;11.13;;;9.00;;
3433;SDS011;1730;41.932;25.548;2024-02-21T12:27:48;8.20;;;7.40;;
3433;SDS011;1730;41.932;25.548;2024-02-21T12:30:18;9.43;;;8.50;;
3433;SDS011;1730;41.932;25.548;2024-02-21T12:32:47;9.27;;;8.20;;
3433;SDS011;1730;41.932;25.548;2024-02-21T12:35:21;7.90;;;7.10;;
3433;SDS011;1730;41.932;25.548;2024-02-21T12:37:47;15.60;;;11.67;;
3433;SDS011;1730;41.932;25.548;2024-02-21T12:40:13;18.03;;;14.77;;
3433;SDS011;1730;41.932;25.548;2024-02-21T12:42:39;8.93;;;7.53;;
3433;SDS011;1730;41.932;25.548;2024-02-21T12:45:05;9.33;;;8.47;;
3433;SDS011;1730;41.932;25.548;2024-02-21T12:47:31;8.90;;;8.10;;
3433;SDS011;1730;41.932;25.548;2024-02-21T12:49:59;12.97;;;9.10;;
3433;SDS011;1730;41.932;25.548;2024-02-21T12:52:25;12.10;;;9.37;;
3433;SDS011;1730;41.932;25.548;2024-02-21T12:54:51;9.17;;;8.27;;
3433;SDS011;1730;41.932;25.548;2024-02-21T12:57:17;15.30;;;9.43;;
3433;SDS011;1730;41.932;25.548;2024-02-21T12:59:42;10.43;;;8.13;;
3433;SDS011;1730;41.932;25.548;2024-02-21T13:02:08;10.23;;;9.03;;
3433;SDS011;1730;41.932;25.548;2024-02-21T13:04:33;6.90;;;6.20;;
3433;SDS011;1730;41.932;25.548;2024-02-21T13:06:59;18.13;;;8.77;;
3433;SDS011;1730;41.932;25.548;2024-02-21T13:09:24;10.30;;;9.27;;
3433;SDS011;1730;41.932;25.548;2024-02-21T13:11:50;21.93;;;13.43;;
3433;SDS011;1730;41.932;25.548;2024-02-21T13:14:16;8.50;;;7.70;;
3433;SDS011;1730;41.932;25.548;2024-02-21T13:16:43;7.77;;;7.10;;
3433;SDS011;1730;41.932;25.548;2024-02-21T13:19:08;9.40;;;8.60;;
3433;SDS011;1730;41.932;25.548;2024-02-21T13:21:34;9.80;;;8.80;;
3433;SDS011;1730;41.932;25.548;2024-02-21T13:24:00;9.17;;;8.37;;
3433;SDS011;1730;41.932;25.548;2024-02-21T13:26:26;8.97;;;8.20;;
3433;SDS011;1730;41.932;25.548;2024-02-21T13:28:52;9.67;;;8.70;;
3433;SDS011;1730;41.932;25.548;2024-02-21T13:31:18;10.47;;;8.80;;
3433;SDS011;1730;41.932;25.548;2024-02-21T13:33:44;8.87;;;7.93;;
3433;SDS011;1730;41.932;25.548;2024-02-21T13:36:10;8.00;;;7.20;;
3433;SDS011;1730;41.932;25.548;2024-02-21T13:38:36;7.97;;;7.17;;
3433;SDS011;1730;41.932;25.548;2024-02-21T13:41:01;8.63;;;7.20;;
3433;SDS011;1730;41.932;25.548;2024-02-21T13:43:27;10.20;;;7.80;;
3433;SDS011;1730;41.932;25.548;2024-02-21T13:45:56;8.20;;;7.00;;
3433;SDS011;1730;41.932;25.548;2024-02-21T13:48:28;6.80;;;6.20;;
3433;SDS011;1730;41.932;25.548;2024-02-21T13:50:55;8.27;;;7.43;;
3433;SDS011;1730;41.932;25.548;2024-02-21T13:53:21;7.13;;;6.60;;
3433;SDS011;1730;41.932;25.548;2024-02-21T13:55:49;8.93;;;7.50;;
3433;SDS011;1730;41.932;25.548;2024-02-21T13:58:15;9.20;;;8.30;;
3433;SDS011;1730;41.932;25.548;2024-02-21T14:00:41;7.73;;;7.10;;
3433;SDS011;1730;41.932;25.548;2024-02-21T14:03:06;8.17;;;7.50;;
3433;SDS011;1730;41.932;25.548;2024-02-21T14:05:33;10.77;;;9.20;;
3433;SDS011;1730;41.932;25.548;2024-02-21T14:07:59;9.17;;;8.27;;
3433;SDS011;1730;41.932;25.548;2024-02-21T14:10:24;17.00;;;10.90;;
3433;SDS011;1730;41.932;25.548;2024-02-21T14:12:50;8.50;;;7.80;;
3433;SDS011;1730;41.932;25.548;2024-02-21T14:15:15;8.07;;;7.37;;
3433;SDS011;1730;41.932;25.548;2024-02-21T14:17:43;7.83;;;7.13;;
3433;SDS011;1730;41.932;25.548;2024-02-21T14:20:09;8.80;;;8.00;;
3433;SDS011;1730;41.932;25.548;2024-02-21T14:22:35;11.97;;;10.77;;
3433;SDS011;1730;41.932;25.548;2024-02-21T14:25:02;18.00;;;9.70;;
3433;SDS011;1730;41.932;25.548;2024-02-21T14:27:30;14.13;;;12.13;;
3433;SDS011;1730;41.932;25.548;2024-02-21T14:29:56;10.50;;;9.10;;
3433;SDS011;1730;41.932;25.548;2024-02-21T14:32:21;9.30;;;7.97;;
3433;SDS011;1730;41.932;25.548;2024-02-21T14:34:47;8.67;;;7.77;;
3433;SDS011;1730;41.932;25.548;2024-02-21T14:37:14;8.27;;;7.57;;
3433;SDS011;1730;41.932;25.548;2024-02-21T14:39:40;8.10;;;7.30;;
3433;SDS011;1730;41.932;25.548;2024-02-21T14:42:06;11.30;;;10.13;;
3433;SDS011;1730;41.932;25.548;2024-02-21T14:44:34;18.00;;;13.87;;